Time;durP1;ratioP1;P1;durP2;ratioP2;P2;SDS_P1;SDS_P2;PMS_P1;PMS_P2;Temp;Humidity;BMP_temperature;BMP_pressure;BME280_temperature;BME280_humidity;BME280_pressure;Samples;Min_cycle;Max_cycle;Signal;HPM_P1;HPM_P2
2022/03/17 00:00:08;;;;;;;49.87;24.10;;;;;;;2.68;100.00;100192.19;5096021;28;20226;-68
2022/03/17 00:02:35;;;;;;;46.87;23.57;;;;;;;2.72;100.00;100198.00;5094646;28;20264;-59
2022/03/17 00:05:04;;;;;;;35.50;16.00;;;;;;;2.70;100.00;100199.72;5096630;28;20275;-59
2022/03/17 00:07:32;;;;;;;48.37;23.30;;;;;;;2.68;100.00;100193.88;5093723;28;20296;-67
2022/03/17 00:10:00;;;;;;;54.70;23.47;;;;;;;2.63;100.00;100193.16;5096478;28;20347;-68
2022/03/17 00:12:27;;;;;;;48.50;24.13;;;;;;;2.55;100.00;100189.94;5096004;28;20206;-67
2022/03/17 00:14:55;;;;;;;48.23;22.80;;;;;;;2.56;100.00;100194.97;5096415;28;20226;-67
2022/03/17 00:17:22;;;;;;;48.67;21.97;;;;;;;2.65;100.00;100201.53;5095265;28;20206;-67
2022/03/17 00:19:49;;;;;;;46.23;23.23;;;;;;;2.62;100.00;100201.59;5095628;28;20288;-59
2022/03/17 00:22:16;;;;;;;44.10;22.20;;;;;;;2.70;100.00;100209.81;5097453;28;20433;-68
2022/03/17 00:24:43;;;;;;;42.60;21.03;;;;;;;2.66;100.00;100213.28;5096608;28;20268;-67
2022/03/17 00:27:12;;;;;;;42.80;20.97;;;;;;;2.60;100.00;100208.38;5096344;28;20259;-67
2022/03/17 00:29:40;;;;;;;37.17;17.83;;;;;;;2.56;100.00;100202.56;5096801;28;20316;-59
2022/03/17 00:32:09;;;;;;;35.97;15.00;;;;;;;2.39;100.00;100204.59;5094996;28;20206;-67
2022/03/17 00:35:35;;;;;;;23.10;10.83;;;;;;;2.37;100.00;100217.25;5095753;28;20652;-59
2022/03/17 00:37:25;;;;;;;23.50;11.93;;;;;;;2.28;100.00;100217.44;5094976;28;20236;-59
2022/03/17 00:39:52;;;;;;;30.17;12.33;;;;;;;2.30;100.00;100209.81;5097575;28;20229;-67
2022/03/17 00:42:22;;;;;;;25.50;12.30;;;;;;;2.31;100.00;100207.28;5095121;28;20596;-59
2022/03/17 00:44:50;;;;;;;22.23;11.20;;;;;;;2.20;100.00;100214.22;5098489;28;20206;-59
2022/03/17 00:47:18;;;;;;;19.17;10.27;;;;;;;2.07;100.00;100207.78;5095975;28;20263;-68
2022/03/17 00:49:46;;;;;;;18.30;9.03;;;;;;;2.04;100.00;100213.69;5094022;28;20243;-59
2022/03/17 00:52:14;;;;;;;22.83;10.23;;;;;;;1.99;100.00;100216.31;5096312;28;20580;-59
2022/03/17 00:54:42;;;;;;;19.33;9.03;;;;;;;1.99;100.00;100220.53;5095994;28;20228;-59
2022/03/17 00:57:10;;;;;;;22.90;10.50;;;;;;;2.01;100.00;100218.81;5097594;28;20206;-59
2022/03/17 00:59:38;;;;;;;21.43;9.67;;;;;;;2.07;100.00;100222.91;5099707;28;20213;-59
2022/03/17 01:02:05;;;;;;;20.27;8.57;;;;;;;2.12;100.00;100231.19;5100375;28;20228;-67
2022/03/17 01:04:32;;;;;;;30.07;10.87;;;;;;;1.95;100.00;100239.94;5097935;28;20213;-68
2022/03/17 01:06:59;;;;;;;20.13;8.53;;;;;;;1.94;100.00;100238.25;5099347;28;20241;-68
2022/03/17 01:09:28;;;;;;;20.67;9.30;;;;;;;1.91;100.00;100233.25;5098391;28;20229;-68
2022/03/17 01:11:55;;;;;;;18.63;9.47;;;;;;;1.90;100.00;100241.69;5099397;28;20221;-68
2022/03/17 01:14:22;;;;;;;17.47;8.77;;;;;;;1.84;100.00;100246.03;5098463;28;20212;-67
2022/03/17 01:16:52;;;;;;;13.07;6.17;;;;;;;1.79;100.00;100243.56;5098582;28;20237;-68
2022/03/17 01:19:20;;;;;;;15.27;6.63;;;;;;;1.72;100.00;100252.13;5097480;28;20694;-67
2022/03/17 01:21:47;;;;;;;20.57;8.27;;;;;;;1.70;100.00;100248.78;5099532;28;20221;-64
2022/03/17 01:24:14;;;;;;;19.40;8.47;;;;;;;1.69;100.00;100252.16;5100442;28;20206;-67
2022/03/17 01:26:41;;;;;;;21.87;8.60;;;;;;;1.67;100.00;100253.88;5096653;28;20228;-67
2022/03/17 01:29:08;;;;;;;19.60;8.47;;;;;;;1.60;100.00;100253.16;5098142;28;20197;-67
2022/03/17 01:31:35;;;;;;;18.13;7.73;;;;;;;1.58;100.00;100260.72;5096360;28;20241;-59
2022/03/17 01:34:04;;;;;;;18.57;9.07;;;;;;;1.56;100.00;100257.41;5097928;28;20209;-67
2022/03/17 01:36:31;;;;;;;19.07;8.53;;;;;;;1.46;100.00;100255.91;5098291;28;20704;-61
2022/03/17 01:38:58;;;;;;;21.53;7.60;;;;;;;1.45;100.00;100258.44;5098005;28;20210;-66
2022/03/17 01:41:25;;;;;;;15.90;6.87;;;;;;;1.39;100.00;100264.41;5097515;28;20719;-59
2022/03/17 01:43:52;;;;;;;15.27;6.50;;;;;;;1.39;100.00;100259.34;5098851;28;20198;-67
2022/03/17 01:46:19;;;;;;;14.30;7.03;;;;;;;1.38;100.00;100272.81;5098496;28;20221;-68
2022/03/17 01:48:46;;;;;;;13.07;7.17;;;;;;;1.23;100.00;100275.59;5099641;28;20202;-59
2022/03/17 01:51:14;;;;;;;14.50;6.83;;;;;;;1.29;100.00;100275.50;5099739;28;20279;-59
2022/03/17 01:53:42;;;;;;;11.80;5.70;;;;;;;1.18;100.00;100279.84;5097866;28;20213;-67
2022/03/17 01:56:10;;;;;;;13.90;6.83;;;;;;;1.19;100.00;100278.97;5096928;28;20233;-59
2022/03/17 01:58:37;;;;;;;14.13;6.47;;;;;;;1.14;100.00;100274.03;5098137;28;20230;-59
2022/03/17 02:01:04;;;;;;;14.27;5.97;;;;;;;1.09;100.00;100276.59;5099203;28;20234;-66
2022/03/17 02:03:31;;;;;;;12.80;5.80;;;;;;;1.06;100.00;100276.66;5097662;28;20470;-67
2022/03/17 02:05:58;;;;;;;12.70;6.20;;;;;;;0.95;100.00;100278.47;5096757;28;20229;-66
2022/03/17 02:08:28;;;;;;;11.37;5.37;;;;;;;0.90;100.00;100273.53;5096799;28;20477;-67
2022/03/17 02:13:39;;;;;;;9.83;4.77;;;;;;;0.84;100.00;100265.19;5095922;28;20193;-68
2022/03/17 02:16:07;;;;;;;10.47;5.07;;;;;;;0.87;100.00;100270.19;5098348;28;20648;-67
2022/03/17 02:18:35;;;;;;;6.03;3.73;;;;;;;0.86;100.00;100258.47;5098538;28;20271;-67
2022/03/17 02:21:02;;;;;;;6.77;4.20;;;;;;;0.81;100.00;100272.78;5096021;28;20224;-62
2022/03/17 02:26:14;;;;;;;12.57;4.70;;;;;;;0.74;100.00;100279.59;5095937;28;20304;-67
2022/03/17 02:28:41;;;;;;;10.97;4.67;;;;;;;0.68;100.00;100279.69;5096399;28;20454;-67
2022/03/17 02:31:11;;;;;;;8.73;4.30;;;;;;;0.70;100.00;100288.06;5094699;28;20508;-59
2022/03/17 02:33:40;;;;;;;8.37;3.60;;;;;;;0.63;100.00;100297.34;5096329;28;20539;-68
2022/03/17 02:36:08;;;;;;;13.60;4.30;;;;;;;0.62;100.00;100290.66;5096449;28;20478;-59
2022/03/17 02:38:36;;;;;;;8.57;3.70;;;;;;;0.61;100.00;100299.06;5096802;28;20521;-68
2022/03/17 02:41:04;;;;;;;7.63;3.73;;;;;;;0.65;100.00;100307.41;5098515;28;20471;-67
2022/03/17 02:43:31;;;;;;;10.30;4.17;;;;;;;0.62;100.00;100303.25;5097184;28;20194;-59
2022/03/17 02:45:58;;;;;;;7.57;3.97;;;;;;;0.63;100.00;100309.94;5096555;28;20489;-67
2022/03/17 02:48:25;;;;;;;6.97;3.40;;;;;;;0.56;100.00;100320.94;5095069;28;20460;-59
2022/03/17 02:50:53;;;;;;;4.33;2.63;;;;;;;0.50;100.00;100321.00;5096015;28;20483;-67
2022/03/17 02:53:20;;;;;;;11.23;3.13;;;;;;;0.49;100.00;100336.94;5097647;28;20526;-59
2022/03/17 02:55:52;;;;;;;7.63;3.47;;;;;;;0.60;100.00;100341.84;5096814;28;20472;-67
2022/03/17 02:58:19;;;;;;;6.90;3.20;;;;;;;0.56;100.00;100346.09;5096827;28;20464;-59
2022/03/17 03:00:46;;;;;;;5.60;3.10;;;;;;;0.47;100.00;100341.16;5098483;28;20472;-59
2022/03/17 03:03:17;;;;;;;10.60;3.53;;;;;;;0.47;100.00;100346.19;5097471;28;20441;-60
2022/03/17 03:05:44;;;;;;;7.90;3.70;;;;;;;0.46;100.00;100349.53;5097324;28;20950;-68
2022/03/17 03:08:11;;;;;;;9.40;3.97;;;;;;;0.44;100.00;100361.34;5097807;28;20987;-59
2022/03/17 03:10:38;;;;;;;8.60;3.77;;;;;;;0.47;100.00;100370.50;5096786;28;20514;-59
2022/03/17 03:13:07;;;;;;;10.67;3.40;;;;;;;0.43;100.00;100372.22;5098062;28;20428;-59
2022/03/17 03:15:34;;;;;;;9.50;3.90;;;;;;;0.52;100.00;100368.78;5097891;28;20480;-67
2022/03/17 03:18:02;;;;;;;6.27;2.97;;;;;;;0.51;100.00;100372.97;5097279;28;20472;-58
2022/03/17 03:20:30;;;;;;;6.50;3.80;;;;;;;0.47;100.00;100367.97;5097414;28;20553;-66
2022/03/17 03:22:57;;;;;;;10.00;3.10;;;;;;;0.51;100.00;100367.13;5095908;28;20474;-59
2022/03/17 03:25:24;;;;;;;5.40;3.13;;;;;;;0.45;100.00;100363.81;5097563;28;20475;-60
2022/03/17 03:27:50;;;;;;;7.40;3.10;;;;;;;0.47;100.00;100365.47;5096238;28;20462;-59
2022/03/17 03:30:20;;;;;;;12.00;3.33;;;;;;;0.43;100.00;100369.69;5095119;28;20490;-63
2022/03/17 03:32:47;;;;;;;8.33;4.00;;;;;;;0.45;100.00;100368.00;5096146;28;20539;-59
2022/03/17 03:38:00;;;;;;;7.40;3.57;;;;;;;0.56;100.00;100371.25;5096209;28;20493;-58
2022/03/17 03:40:28;;;;;;;6.57;3.07;;;;;;;0.46;100.00;100379.72;5097267;28;20709;-67
2022/03/17 03:42:56;;;;;;;7.40;3.47;;;;;;;0.50;100.00;100383.91;5098773;28;20812;-68
2022/03/17 03:45:26;;;;;;;6.60;2.83;;;;;;;0.50;100.00;100391.44;5097346;28;20867;-59
2022/03/17 03:47:53;;;;;;;6.93;3.00;;;;;;;0.45;100.00;100385.63;5096059;28;20448;-67
2022/03/17 03:50:21;;;;;;;4.77;2.97;;;;;;;0.42;100.00;100393.22;5097166;28;20974;-67
2022/03/17 03:52:48;;;;;;;7.43;2.90;;;;;;;0.55;100.00;100399.78;5098407;28;20451;-68
2022/03/17 03:55:16;;;;;;;7.93;3.50;;;;;;;0.50;100.00;100400.69;5096225;28;20472;-67
2022/03/17 03:57:46;;;;;;;6.00;3.10;;;;;;;0.51;100.00;100403.19;5096687;28;20447;-60
2022/03/17 04:00:22;;;;;;;5.57;3.20;;;;;;;0.49;100.00;100404.03;5096119;28;21024;-67
2022/03/17 04:02:52;;;;;;;9.07;3.30;;;;;;;0.48;100.00;100404.91;5095791;28;20235;-67
2022/03/17 04:05:19;;;;;;;8.40;3.27;;;;;;;0.46;100.00;100404.91;5096354;28;20858;-59
2022/03/17 04:07:47;;;;;;;5.17;3.00;;;;;;;0.44;100.00;100412.47;5096889;28;20456;-67
2022/03/17 04:10:14;;;;;;;12.90;3.70;;;;;;;0.39;100.00;100414.19;5096570;28;20484;-59
2022/03/17 04:12:41;;;;;;;7.53;3.93;;;;;;;0.38;100.00;100426.81;5096177;28;20444;-59
2022/03/17 04:15:09;;;;;;;6.30;2.80;;;;;;;0.52;100.00;100430.00;5095684;28;20471;-68
2022/03/17 04:17:36;;;;;;;6.17;3.23;;;;;;;0.53;100.00;100431.69;5095358;28;20456;-59
2022/03/17 04:20:08;;;;;;;7.80;3.40;;;;;;;0.45;100.00;100443.50;5097519;28;20482;-59
2022/03/17 04:22:35;;;;;;;7.77;3.70;;;;;;;0.47;100.00;100433.41;5097878;28;20526;-59
2022/03/17 04:25:02;;;;;;;8.53;3.43;;;;;;;0.52;100.00;100440.06;5098515;28;20484;-67
2022/03/17 04:27:29;;;;;;;6.67;3.53;;;;;;;0.43;100.00;100445.19;5095999;28;20448;-59
2022/03/17 04:29:56;;;;;;;4.87;2.03;;;;;;;0.34;100.00;100445.28;5096021;28;20230;-59
2022/03/17 04:32:23;;;;;;;7.77;2.90;;;;;;;0.36;100.00;100453.66;5098212;28;20525;-66
2022/03/17 04:34:51;;;;;;;6.67;3.33;;;;;;;0.26;100.00;100447.00;5098598;28;20460;-59
2022/03/17 04:37:19;;;;;;;5.10;2.50;;;;;;;0.30;100.00;100448.66;5098895;28;20443;-61
2022/03/17 04:39:46;;;;;;;8.87;3.87;;;;;;;0.28;99.43;100450.34;5099816;28;20467;-59
2022/03/17 04:42:13;;;;;;;8.93;3.03;;;;;;;0.30;99.74;100452.00;5100549;28;20432;-59
2022/03/17 04:44:41;;;;;;;5.03;2.93;;;;;;;0.30;99.67;100457.03;5100472;28;20464;-67
2022/03/17 04:47:08;;;;;;;8.20;3.43;;;;;;;0.30;99.21;100453.69;5100090;28;20479;-59
2022/03/17 04:49:35;;;;;;;6.30;3.17;;;;;;;0.26;99.54;100457.91;5098008;28;20456;-68
2022/03/17 04:53:26;;;;;;;7.97;3.23;;;;;;;0.29;98.86;100454.53;5100021;28;20244;-67
2022/03/17 04:54:51;;;;;;;8.13;2.93;;;;;;;0.28;98.26;100460.41;5098006;28;20443;-59
2022/03/17 04:57:19;;;;;;;6.57;3.40;;;;;;;0.27;98.87;100466.31;5098195;28;20210;-59
2022/03/17 04:59:45;;;;;;;6.37;3.70;;;;;;;0.21;99.34;100475.56;5099369;28;20462;-60
2022/03/17 05:02:13;;;;;;;7.53;3.27;;;;;;;0.24;99.36;100469.66;5099729;28;20452;-59
2022/03/17 05:04:40;;;;;;;8.27;3.40;;;;;;;0.29;99.22;100479.69;5098768;28;20455;-64
2022/03/17 05:07:08;;;;;;;6.03;3.40;;;;;;;0.35;98.88;100484.66;5099152;28;20539;-59
2022/03/17 05:09:35;;;;;;;4.87;2.57;;;;;;;0.22;99.10;100494.00;5098750;28;20468;-59
2022/03/17 05:12:04;;;;;;;8.80;2.90;;;;;;;0.31;99.21;100501.47;5099324;28;20484;-67
2022/03/17 05:14:32;;;;;;;6.37;2.53;;;;;;;0.34;99.54;100505.63;5099071;28;20447;-67
2022/03/17 05:17:00;;;;;;;7.47;3.37;;;;;;;0.27;99.51;100504.03;5099487;28;20447;-59
2022/03/17 05:19:28;;;;;;;6.37;3.47;;;;;;;0.31;99.90;100505.66;5098197;28;20478;-59
2022/03/17 05:21:56;;;;;;;7.07;3.57;;;;;;;0.33;99.89;100506.50;5099152;28;20494;-67
2022/03/17 05:24:23;;;;;;;7.77;3.50;;;;;;;0.35;99.70;100517.34;5097039;28;20447;-64
2022/03/17 05:26:50;;;;;;;7.73;3.40;;;;;;;0.30;98.77;100529.16;5098557;28;20472;-59
2022/03/17 05:29:19;;;;;;;5.30;2.87;;;;;;;0.26;98.78;100533.34;5097925;28;20444;-59
2022/03/17 05:31:47;;;;;;;6.40;3.60;;;;;;;0.28;98.43;100543.41;5098052;28;20487;-68
2022/03/17 05:34:14;;;;;;;7.03;3.80;;;;;;;0.27;98.55;100536.72;5097792;28;20456;-66
2022/03/17 05:36:41;;;;;;;8.20;3.93;;;;;;;0.42;98.84;100539.13;5097644;28;20559;-60
2022/03/17 05:39:08;;;;;;;4.80;3.13;;;;;;;0.33;97.86;100549.25;5098899;28;20534;-67
2022/03/17 05:41:35;;;;;;;7.10;3.53;;;;;;;0.29;97.45;100552.63;5099129;28;20464;-67
2022/03/17 05:44:04;;;;;;;6.17;3.37;;;;;;;0.32;97.04;100552.59;5079773;28;20450;-67
2022/03/17 05:46:32;;;;;;;6.10;3.23;;;;;;;0.30;97.15;100554.31;5098911;28;20532;-67
2022/03/17 05:48:59;;;;;;;9.27;3.37;;;;;;;0.37;97.75;100563.47;5096482;28;20452;-59
2022/03/17 05:51:26;;;;;;;8.83;3.30;;;;;;;0.41;97.51;100557.59;5096155;28;20544;-60
2022/03/17 05:53:53;;;;;;;7.30;2.80;;;;;;;0.34;97.89;100569.34;5097807;28;20467;-61
2022/03/17 05:56:21;;;;;;;5.27;3.20;;;;;;;0.37;98.10;100573.53;5099399;28;20473;-68
2022/03/17 05:58:49;;;;;;;7.23;3.70;;;;;;;0.36;98.93;100575.22;5100964;28;20438;-67
2022/03/17 06:01:16;;;;;;;6.57;2.13;;;;;;;0.38;98.83;100575.22;5099500;28;20472;-59
2022/03/17 06:03:50;;;;;;;7.63;2.73;;;;;;;0.43;98.34;100576.00;5098965;28;20452;-66
2022/03/17 06:06:17;;;;;;;10.57;3.63;;;;;;;0.46;98.73;100581.03;5097003;28;20484;-67
2022/03/17 06:08:44;;;;;;;7.27;3.73;;;;;;;0.57;99.91;100579.28;5098410;28;21108;-67
2022/03/17 06:11:11;;;;;;;7.57;4.00;;;;;;;0.44;98.35;100588.59;5099854;28;20484;-59
2022/03/17 06:13:38;;;;;;;8.13;3.00;;;;;;;0.64;98.44;100580.91;5096618;28;20456;-66
2022/03/17 06:16:06;;;;;;;5.83;3.37;;;;;;;0.67;98.61;100596.00;5097824;28;20233;-59
2022/03/17 06:18:34;;;;;;;7.80;3.23;;;;;;;0.72;97.52;100592.59;5096909;28;20452;-66
2022/03/17 06:21:02;;;;;;;9.77;3.73;;;;;;;0.77;97.80;100590.88;5096351;28;20483;-57
2022/03/17 06:23:29;;;;;;;12.77;3.77;;;;;;;0.64;97.80;100603.56;5097062;28;20497;-65
2022/03/17 06:25:56;;;;;;;8.10;3.97;;;;;;;0.74;97.36;100606.84;5097516;28;20475;-58
2022/03/17 06:28:23;;;;;;;8.07;3.33;;;;;;;0.75;96.51;100613.53;5098190;28;20206;-58
2022/03/17 06:30:51;;;;;;;8.73;3.80;;;;;;;0.85;96.38;100619.34;5096630;28;20566;-60
2022/03/17 06:33:18;;;;;;;4.53;3.00;;;;;;;0.83;97.06;100621.03;5096374;28;20470;-66
2022/03/17 06:35:45;;;;;;;9.87;4.00;;;;;;;0.78;96.32;100622.75;5096664;28;20225;-58
2022/03/17 06:38:15;;;;;;;8.07;4.03;;;;;;;0.90;96.91;100627.69;5096959;28;20477;-66
2022/03/17 06:40:42;;;;;;;12.13;4.63;;;;;;;0.90;95.96;100632.72;5095829;28;20479;-58
2022/03/17 06:43:09;;;;;;;7.53;3.00;;;;;;;1.02;96.09;100629.25;5097062;28;20194;-58
2022/03/17 06:45:36;;;;;;;6.23;3.50;;;;;;;0.97;96.05;100639.38;5097027;28;20229;-57
2022/03/17 06:48:04;;;;;;;6.33;2.97;;;;;;;0.95;95.58;100641.06;5097233;28;20463;-57
2022/03/17 06:50:30;;;;;;;6.20;3.57;;;;;;;0.93;94.94;100641.94;5097317;28;20251;-66
2022/03/17 06:52:57;;;;;;;6.50;3.60;;;;;;;1.05;96.47;100647.72;5095795;28;20635;-66
2022/03/17 06:55:26;;;;;;;7.10;3.33;;;;;;;1.21;95.91;100638.34;5095803;28;20301;-66
2022/03/17 06:57:53;;;;;;;7.17;3.30;;;;;;;1.16;96.18;100644.25;5097185;28;20204;-58
2022/03/17 07:00:21;;;;;;;7.93;3.60;;;;;;;1.26;96.05;100645.88;5096853;28;20861;-66
2022/03/17 07:02:48;;;;;;;8.23;3.53;;;;;;;1.34;95.54;100651.69;5097423;28;20456;-58
2022/03/17 07:05:15;;;;;;;6.07;3.10;;;;;;;1.44;95.31;100649.91;5095790;28;20566;-66
2022/03/17 07:07:44;;;;;;;5.07;2.37;;;;;;;1.50;95.42;100652.34;5098675;28;20201;-58
2022/03/17 07:10:12;;;;;;;3.83;2.20;;;;;;;1.33;93.94;100655.03;5097498;28;20271;-66
2022/03/17 07:12:41;;;;;;;6.80;3.47;;;;;;;1.41;94.79;100655.78;5096581;28;20715;-65
2022/03/17 07:15:10;;;;;;;6.00;3.03;;;;;;;1.39;95.38;100654.97;5097415;28;20221;-59
2022/03/17 07:17:40;;;;;;;5.23;2.23;;;;;;;1.32;95.54;100658.41;5095439;28;20262;-66
2022/03/17 07:20:09;;;;;;;6.13;3.10;;;;;;;1.33;95.51;100670.16;5095662;28;20279;-57
2022/03/17 07:22:36;;;;;;;6.13;2.50;;;;;;;1.18;95.68;100667.78;5095249;28;20866;-57
2022/03/17 07:25:03;;;;;;;4.23;2.07;;;;;;;1.27;95.89;100667.69;5095443;28;20742;-57
2022/03/17 07:27:32;;;;;;;10.37;3.20;;;;;;;1.32;96.71;100671.00;5097379;28;20454;-58
2022/03/17 07:30:02;;;;;;;4.73;2.00;;;;;;;1.29;96.18;100676.06;5096143;28;20240;-65
2022/03/17 07:32:29;;;;;;;6.00;2.77;;;;;;;1.41;98.23;100675.13;5095937;28;20320;-58
2022/03/17 07:34:56;;;;;;;6.07;3.03;;;;;;;1.53;96.43;100680.88;5096320;28;20212;-57
2022/03/17 07:37:23;;;;;;;6.03;3.70;;;;;;;1.59;97.20;100682.50;5095651;28;20209;-57
2022/03/17 07:39:51;;;;;;;5.70;2.57;;;;;;;1.30;96.40;100693.69;5096460;28;20189;-65
2022/03/17 07:42:18;;;;;;;4.97;2.73;;;;;;;1.24;98.34;100687.88;5097294;28;20202;-61
2022/03/17 07:44:46;;;;;;;4.23;3.03;;;;;;;1.33;99.71;100682.75;5095351;28;20205;-58
2022/03/17 07:47:15;;;;;;;4.97;3.43;;;;;;;1.40;99.82;100679.34;5095452;28;20621;-58
2022/03/17 07:49:43;;;;;;;6.37;3.17;;;;;;;1.33;100.00;100692.81;5095380;28;20207;-66
2022/03/17 07:52:10;;;;;;;6.30;3.67;;;;;;;1.36;100.00;100685.25;5096143;28;20249;-65
2022/03/17 07:54:37;;;;;;;7.07;3.47;;;;;;;1.28;100.00;100686.97;5095503;28;20198;-58
2022/03/17 07:57:04;;;;;;;7.20;4.23;;;;;;;1.28;100.00;100694.53;5095264;28;20221;-65
2022/03/17 07:59:33;;;;;;;6.97;3.50;;;;;;;1.31;100.00;100684.47;5094527;28;20206;-66
2022/03/17 08:02:01;;;;;;;8.87;3.63;;;;;;;1.36;100.00;100697.84;5096379;28;20201;-58
2022/03/17 08:04:29;;;;;;;7.63;3.17;;;;;;;1.28;100.00;100700.44;5095315;28;20198;-57
2022/03/17 08:06:57;;;;;;;6.23;3.40;;;;;;;1.19;100.00;100694.63;5095056;28;20515;-66
2022/03/17 08:09:25;;;;;;;6.47;3.63;;;;;;;1.26;100.00;100702.13;5096841;28;20448;-58
2022/03/17 08:11:53;;;;;;;8.13;4.00;;;;;;;1.38;100.00;100701.19;5094822;28;20241;-57
2022/03/17 08:14:20;;;;;;;8.33;4.00;;;;;;;1.22;100.00;100699.63;5095619;28;20967;-57
2022/03/17 08:16:48;;;;;;;7.20;4.13;;;;;;;1.25;100.00;100707.16;5094577;28;20993;-58
2022/03/17 08:19:15;;;;;;;9.33;3.77;;;;;;;1.42;100.00;100712.91;5095415;28;20202;-65
2022/03/17 08:21:43;;;;;;;6.57;3.17;;;;;;;1.47;100.00;100715.38;5094571;28;20251;-66
2022/03/17 08:24:10;;;;;;;9.67;4.47;;;;;;;1.57;100.00;100722.88;5094741;28;20212;-66
2022/03/17 08:26:38;;;;;;;9.43;4.77;;;;;;;1.32;100.00;100726.44;5095742;28;20603;-58
2022/03/17 08:29:05;;;;;;;7.80;5.10;;;;;;;1.35;100.00;100726.41;5094419;28;20451;-66
2022/03/17 08:31:32;;;;;;;6.47;3.90;;;;;;;1.19;100.00;100724.84;5094443;28;20464;-57
2022/03/17 08:34:00;;;;;;;9.83;4.53;;;;;;;1.27;100.00;100723.13;5094311;28;20671;-66
2022/03/17 08:36:27;;;;;;;7.90;4.83;;;;;;;1.33;100.00;100728.94;5094774;28;20244;-67
2022/03/17 08:38:55;;;;;;;4.93;3.37;;;;;;;1.18;100.00;100733.25;5093544;28;20216;-58
2022/03/17 08:41:23;;;;;;;8.27;4.47;;;;;;;1.28;100.00;100735.72;5094941;28;20236;-66
2022/03/17 08:43:51;;;;;;;12.00;5.23;;;;;;;1.31;100.00;100738.22;5094832;28;20205;-65
2022/03/17 08:49:22;;;;;;;7.37;4.30;;;;;;;1.40;100.00;100739.81;5094055;28;20201;-66
2022/03/17 08:51:52;;;;;;;8.30;3.77;;;;;;;1.36;100.00;100743.19;5094981;28;20243;-57
2022/03/17 08:54:22;;;;;;;9.37;4.93;;;;;;;1.17;100.00;100742.50;5096212;28;20448;-66
2022/03/17 08:56:50;;;;;;;7.73;4.93;;;;;;;1.04;100.00;100746.78;5094512;28;20448;-58
2022/03/17 08:59:17;;;;;;;6.70;4.43;;;;;;;0.98;100.00;100746.81;5093364;28;20213;-61
2022/03/17 09:01:45;;;;;;;7.53;4.73;;;;;;;0.77;100.00;100752.00;5093198;28;20218;-66
2022/03/17 09:04:13;;;;;;;9.03;5.63;;;;;;;0.83;100.00;100751.94;5093805;28;20220;-59
2022/03/17 09:06:41;;;;;;;11.17;6.67;;;;;;;0.93;100.00;100748.53;5095419;28;20463;-62
2022/03/17 09:09:08;;;;;;;9.80;5.63;;;;;;;0.96;100.00;100757.75;5094931;28;20212;-58
2022/03/17 09:11:37;;;;;;;10.33;5.23;;;;;;;0.88;100.00;100755.28;5096117;28;20485;-66
2022/03/17 09:14:04;;;;;;;11.57;5.20;;;;;;;0.98;100.00;100751.03;5094848;28;20495;-66
2022/03/17 09:16:31;;;;;;;6.93;4.03;;;;;;;0.84;100.00;100749.44;5095573;28;20226;-65
2022/03/17 09:18:58;;;;;;;13.37;7.63;;;;;;;0.99;100.00;100756.06;5095743;28;20458;-65
2022/03/17 09:21:27;;;;;;;8.67;5.90;;;;;;;1.18;100.00;100748.38;5097123;28;20475;-57
2022/03/17 09:23:55;;;;;;;13.00;5.57;;;;;;;1.19;100.00;100745.00;5098039;28;20596;-66
2022/03/17 09:26:23;;;;;;;17.07;6.77;;;;;;;1.49;100.00;100733.88;5097416;28;20221;-57
2022/03/17 09:28:51;;;;;;;9.40;5.93;;;;;;;1.56;100.00;100746.38;5097141;28;20255;-66
2022/03/17 09:31:19;;;;;;;10.03;5.63;;;;;;;1.94;100.00;100740.16;5097565;28;20222;-62
2022/03/17 09:33:46;;;;;;;16.27;7.43;;;;;;;2.22;100.00;100742.38;5096560;28;20242;-58
2022/03/17 09:36:16;;;;;;;11.07;5.27;;;;;;;2.54;100.00;100741.16;5098626;28;20244;-65
2022/03/17 09:38:43;;;;;;;15.40;6.67;;;;;;;2.98;100.00;100754.88;5097777;28;20269;-66
2022/03/17 09:41:24;;;;;;;10.03;5.13;;;;;;;3.05;100.00;100749.69;5098530;28;20229;-66
2022/03/17 09:43:53;;;;;;;12.30;5.47;;;;;;;2.93;100.00;100752.41;5099271;28;20289;-66
2022/03/17 09:46:22;;;;;;;14.87;6.37;;;;;;;2.82;100.00;100750.06;5098029;28;20230;-57
2022/03/17 09:48:52;;;;;;;10.33;6.10;;;;;;;2.61;100.00;100760.41;5097280;28;20210;-65
2022/03/17 09:51:23;;;;;;;12.40;6.03;;;;;;;2.80;100.00;100761.84;5097964;28;20230;-58
2022/03/17 09:53:53;;;;;;;13.07;6.63;;;;;;;2.97;100.00;100763.31;5097569;28;20233;-57
2022/03/17 09:56:23;;;;;;;12.13;6.80;;;;;;;3.00;100.00;100760.75;5098544;28;20241;-66
2022/03/17 09:58:51;;;;;;;9.37;6.07;;;;;;;2.98;100.00;100760.75;5099278;28;20225;-57
2022/03/17 10:01:21;;;;;;;7.87;5.13;;;;;;;3.06;100.00;100768.25;5097470;28;20233;-66
2022/03/17 10:03:47;;;;;;;12.77;6.63;;;;;;;2.97;99.98;100763.31;5097265;28;20659;-66
2022/03/17 10:06:16;;;;;;;14.53;5.90;;;;;;;3.17;100.00;100771.44;5096501;28;20222;-58
2022/03/17 10:08:45;;;;;;;12.90;6.63;;;;;;;3.07;100.00;100768.22;5096884;28;20683;-65
2022/03/17 10:11:16;;;;;;;10.30;5.17;;;;;;;3.53;100.00;100774.28;5095110;28;20310;-65
2022/03/17 10:13:47;;;;;;;6.37;4.33;;;;;;;3.62;99.18;100766.53;5098534;28;20238;-66
2022/03/17 10:16:18;;;;;;;9.13;5.40;;;;;;;3.47;96.15;100775.19;5095992;28;20214;-58
2022/03/17 10:18:46;;;;;;;7.20;4.20;;;;;;;3.45;96.82;100766.78;5097641;28;20202;-66
2022/03/17 10:21:18;;;;;;;7.50;3.80;;;;;;;3.55;95.02;100762.41;5095104;28;20222;-65
2022/03/17 10:23:48;;;;;;;8.53;4.57;;;;;;;3.70;93.47;100776.53;5098493;28;20214;-57
2022/03/17 10:26:32;;;;;;;10.07;5.20;;;;;;;3.70;93.67;100777.34;5098749;28;20656;-66
2022/03/17 10:29:07;;;;;;;7.67;4.30;;;;;;;3.67;92.22;100779.94;5098887;28;20202;-57
2022/03/17 10:31:54;;;;;;;8.20;5.17;;;;;;;3.78;94.38;100775.53;5097343;28;20233;-57
2022/03/17 10:34:25;;;;;;;11.17;5.77;;;;;;;4.01;94.28;100759.91;5098189;28;20238;-66
2022/03/17 10:36:53;;;;;;;7.33;5.00;;;;;;;3.81;92.74;100774.63;5096042;28;20226;-66
2022/03/17 10:39:20;;;;;;;7.57;4.63;;;;;;;3.97;91.30;100770.16;5097407;28;20214;-58
2022/03/17 10:41:48;;;;;;;5.13;3.20;;;;;;;3.78;90.93;100770.47;5098435;28;20229;-57
2022/03/17 10:44:17;;;;;;;7.27;4.53;;;;;;;4.08;93.51;100768.25;5096699;28;20301;-66
2022/03/17 10:46:56;;;;;;;6.07;4.23;;;;;;;4.16;92.25;100770.63;5097122;28;20222;-57
2022/03/17 10:49:25;;;;;;;6.27;4.33;;;;;;;4.07;90.83;100758.97;5095788;28;20202;-66
2022/03/17 10:51:55;;;;;;;8.20;4.37;;;;;;;4.17;90.03;100763.00;5096932;28;20225;-66
2022/03/17 10:54:23;;;;;;;7.97;5.13;;;;;;;4.10;90.24;100769.03;5098452;28;20241;-57
2022/03/17 10:57:00;;;;;;;3.70;2.87;;;;;;;4.25;88.21;100775.53;5095816;28;20226;-65
2022/03/17 10:59:38;;;;;;;7.67;4.50;;;;;;;4.35;87.22;100768.59;5096837;28;20247;-66
2022/03/17 11:02:08;;;;;;;6.77;3.63;;;;;;;4.52;85.92;100774.16;5095853;28;20267;-65
2022/03/17 11:04:38;;;;;;;5.60;4.00;;;;;;;4.70;86.84;100770.41;5095267;28;20206;-58
2022/03/17 11:07:08;;;;;;;7.00;4.50;;;;;;;4.69;83.95;100778.88;5095529;28;20263;-66
2022/03/17 11:09:39;;;;;;;5.77;3.83;;;;;;;4.60;81.67;100777.38;5095145;28;20202;-57
2022/03/17 11:12:08;;;;;;;7.80;4.57;;;;;;;4.43;82.46;100782.78;5096131;28;20201;-66
2022/03/17 11:14:35;;;;;;;9.07;5.30;;;;;;;4.40;85.00;100780.31;5095894;28;20241;-58
2022/03/17 11:17:05;;;;;;;8.50;5.00;;;;;;;4.35;85.55;100788.84;5095361;28;20228;-58
2022/03/17 11:19:34;;;;;;;14.57;4.57;;;;;;;4.26;83.19;100778.03;5095725;28;20202;-64
2022/03/17 11:22:09;;;;;;;8.90;4.30;;;;;;;4.40;83.39;100782.84;5096696;28;20213;-66
2022/03/17 11:24:38;;;;;;;7.27;3.50;;;;;;;4.41;78.77;100781.13;5095346;28;20310;-66
2022/03/17 11:27:10;;;;;;;4.10;2.67;;;;;;;4.34;75.68;100779.59;5095914;28;20205;-66
2022/03/17 11:29:45;;;;;;;4.20;2.23;;;;;;;4.28;73.50;100785.59;5095595;28;20416;-57
2022/03/17 11:32:28;;;;;;;3.97;2.60;;;;;;;4.38;76.44;100781.19;5095275;28;20202;-66
2022/03/17 11:35:09;;;;;;;3.53;1.87;;;;;;;4.45;72.03;100777.66;5095745;28;20236;-58
2022/03/17 11:37:38;;;;;;;5.00;3.13;;;;;;;4.33;73.05;100778.72;5094789;28;20201;-58
2022/03/17 11:40:08;;;;;;;6.67;3.40;;;;;;;4.55;73.78;100776.63;5093429;28;20225;-58